createdAt,value
2019-04-04T03:01:03.756Z,6.30
2019-04-04T03:03:32.402Z,6.40
2019-04-04T03:06:01.068Z,6.40
2019-04-04T03:08:29.651Z,6.40
2019-04-04T03:10:58.223Z,6.40
2019-04-04T03:13:31.287Z,6.50
2019-04-04T03:15:57.071Z,6.50
2019-04-04T03:18:25.650Z,6.50
2019-04-04T03:20:54.199Z,6.60
2019-04-04T03:23:22.759Z,6.60
2019-04-04T03:25:51.389Z,6.60
2019-04-04T03:28:20.067Z,6.60
2019-04-04T03:30:58.106Z,6.60
2019-04-04T03:33:19.253Z,6.60
2019-04-04T03:35:48.139Z,6.60
2019-04-04T03:38:16.721Z,6.60
2019-04-04T03:40:45.283Z,6.60
2019-04-04T03:43:16.004Z,6.70
2019-04-04T03:45:44.439Z,6.60
2019-04-04T03:48:16.976Z,6.60
2019-04-04T03:50:43.274Z,6.60
2019-04-04T03:53:16.310Z,6.60
2019-04-04T03:55:42.132Z,6.60
2019-04-04T03:58:10.694Z,6.70
2019-04-04T04:00:40.456Z,6.60
2019-04-04T04:03:09.622Z,6.60
2019-04-04T04:05:57.487Z,6.60
2019-04-04T04:08:26.161Z,6.50
2019-04-04T04:10:54.715Z,6.50
2019-04-04T04:13:23.286Z,6.50
2019-04-04T04:15:51.877Z,6.50
2019-04-04T04:18:21.745Z,6.60
2019-04-04T04:20:50.898Z,6.60
2019-04-04T04:23:23.009Z,6.60
2019-04-04T04:25:49.764Z,6.60
2019-04-04T04:28:20.137Z,6.60
2019-04-04T04:30:48.992Z,6.50
2019-04-04T04:33:17.727Z,6.60
2019-04-04T04:35:46.319Z,6.50
2019-04-04T04:38:15.490Z,6.50
2019-04-04T04:40:46.849Z,6.60
2019-04-04T04:43:15.747Z,6.60
2019-04-04T04:45:45.241Z,6.50
2019-04-04T04:48:13.931Z,6.60
2019-04-04T04:50:42.779Z,6.60
2019-04-04T04:53:11.422Z,6.60
2019-04-04T04:55:40.299Z,6.50
2019-04-04T04:58:10.459Z,6.60
2019-04-04T05:00:39.162Z,6.60
2019-04-04T05:03:07.718Z,6.60
2019-04-04T05:05:36.286Z,6.60
2019-04-04T05:08:04.919Z,6.50
2019-04-04T05:10:33.490Z,6.60
2019-04-04T05:13:02.059Z,6.60
2019-04-04T05:15:32.394Z,6.60
2019-04-04T05:18:00.914Z,6.60
2019-04-04T05:20:29.768Z,6.60
2019-04-04T05:22:58.538Z,6.60
2019-04-04T05:25:27.094Z,6.60
2019-04-04T05:27:55.670Z,6.70
2019-04-04T05:30:24.228Z,6.70
2019-04-04T05:32:56.230Z,6.80
2019-04-04T05:35:23.393Z,6.80
2019-04-04T05:37:51.973Z,6.80
2019-04-04T05:40:23.227Z,6.90
2019-04-04T05:42:50.926Z,6.80
2019-04-04T05:45:19.542Z,6.90
2019-04-04T05:47:48.122Z,6.90
2019-04-04T05:50:16.790Z,6.80
2019-04-04T05:52:45.393Z,6.90
2019-04-04T05:55:13.942Z,6.90
2019-04-04T05:57:42.497Z,7.00
2019-04-04T06:00:13.408Z,7.00
2019-04-04T06:02:43.297Z,6.90
2019-04-04T06:05:12.268Z,7.00
2019-04-04T06:07:41.171Z,7.00
2019-04-04T06:10:11.983Z,7.00
2019-04-04T06:12:40.403Z,7.00
2019-04-04T06:15:08.962Z,7.00
2019-04-04T06:17:39.281Z,7.10
2019-04-04T06:20:09.067Z,7.20
2019-04-04T06:22:37.618Z,7.30
2019-04-04T06:25:06.597Z,7.50
2019-04-04T06:27:35.143Z,7.60
2019-04-04T06:30:04.038Z,7.70
2019-04-04T06:32:32.602Z,7.80
2019-04-04T06:35:01.160Z,7.90
2019-04-04T06:37:29.743Z,8.00
2019-04-04T06:39:58.835Z,8.20
2019-04-04T06:42:28.182Z,8.30
2019-04-04T06:44:56.771Z,8.40
2019-04-04T06:47:26.292Z,8.50
2019-04-04T06:49:54.994Z,8.60
2019-04-04T06:52:23.643Z,8.70
2019-04-04T06:54:52.252Z,8.80
2019-04-04T06:57:20.914Z,8.80
2019-04-04T06:59:51.158Z,8.70
2019-04-04T07:02:19.783Z,8.70
2019-04-04T07:04:48.626Z,8.70
2019-04-04T07:07:17.206Z,8.80
2019-04-04T07:09:46.082Z,8.90
2019-04-04T07:12:22.390Z,8.90
2019-04-04T07:14:47.032Z,9.10
2019-04-04T07:17:16.441Z,9.20
2019-04-04T07:19:46.179Z,9.40
2019-04-04T07:22:15.750Z,9.60
2019-04-04T07:24:44.378Z,9.80
2019-04-04T07:27:14.191Z,10.20
2019-04-04T07:29:43.268Z,10.90
2019-04-04T07:32:11.836Z,12.00
2019-04-04T07:34:40.390Z,13.10
2019-04-04T07:37:08.991Z,14.20
2019-04-04T07:39:37.566Z,15.20
2019-04-04T07:42:06.154Z,15.90
2019-04-04T07:44:34.738Z,16.80
2019-04-04T07:47:03.302Z,17.20
2019-04-04T07:49:31.870Z,17.90
2019-04-04T07:52:01.978Z,18.50
2019-04-04T07:54:32.082Z,19.20
2019-04-04T07:57:00.778Z,19.40
2019-04-04T07:59:31.119Z,19.40
2019-04-04T08:01:59.818Z,19.50
2019-04-04T08:04:28.387Z,19.30
2019-04-04T08:06:56.978Z,19.30
2019-04-04T08:09:26.371Z,19.50
2019-04-04T08:11:55.027Z,19.60
2019-04-04T08:14:23.610Z,19.50
2019-04-04T08:16:52.453Z,19.50
2019-04-04T08:19:21.014Z,19.10
2019-04-04T08:21:49.607Z,19.20
2019-04-04T08:24:18.507Z,19.20
2019-04-04T08:26:47.411Z,19.20
2019-04-04T08:29:15.997Z,19.20
2019-04-04T08:31:44.854Z,19.00
2019-04-04T08:34:13.411Z,18.60
2019-04-04T08:36:41.995Z,18.30
2019-04-04T08:39:12.302Z,17.90
2019-04-04T08:41:40.886Z,17.60
2019-04-04T08:44:09.506Z,17.40
2019-04-04T08:46:38.950Z,17.10
2019-04-04T08:49:07.526Z,17.10
2019-04-04T08:51:36.426Z,17.00
2019-04-04T08:54:04.986Z,16.90
2019-04-04T08:56:33.550Z,16.60
2019-04-04T08:59:02.200Z,16.60
2019-04-04T09:01:30.746Z,16.50
2019-04-04T09:03:59.324Z,17.40
2019-04-04T09:06:27.911Z,19.00
2019-04-04T09:08:56.467Z,20.60
2019-04-04T09:11:25.025Z,21.30
2019-04-04T09:13:53.603Z,21.70
2019-04-04T09:16:22.259Z,22.30
2019-04-04T09:18:50.821Z,22.80
2019-04-04T09:21:19.414Z,23.30
2019-04-04T09:23:47.966Z,23.00
2019-04-04T09:26:16.532Z,22.30
2019-04-04T09:28:45.122Z,21.50
2019-04-04T09:31:13.683Z,21.20
2019-04-04T09:33:42.247Z,21.00
2019-04-04T09:36:10.826Z,21.00
2019-04-04T09:38:39.391Z,21.00
2019-04-04T09:41:07.953Z,20.40
2019-04-04T09:43:36.584Z,20.40
2019-04-04T09:46:05.140Z,20.60
2019-04-04T09:48:33.719Z,20.20
2019-04-04T09:51:02.343Z,19.50
2019-04-04T09:53:30.912Z,18.70
2019-04-04T09:55:59.478Z,18.20
2019-04-04T09:58:28.079Z,18.10
2019-04-04T10:00:56.664Z,18.30
2019-04-04T10:03:25.522Z,18.10
2019-04-04T10:05:54.197Z,18.50
2019-04-04T10:08:22.834Z,18.50
2019-04-04T10:10:51.394Z,18.30
2019-04-04T10:13:19.995Z,18.10
2019-04-04T10:15:48.554Z,18.70
2019-04-04T10:18:17.131Z,19.30
2019-04-04T10:20:45.728Z,20.20
2019-04-04T10:23:14.301Z,21.20
2019-04-04T10:25:42.988Z,21.80
2019-04-04T10:28:11.578Z,22.00
2019-04-04T10:30:40.150Z,22.20
2019-04-04T10:33:09.027Z,22.50
2019-04-04T10:35:37.974Z,22.00
2019-04-04T10:38:06.548Z,21.90
2019-04-04T10:40:35.204Z,22.00
2019-04-04T10:43:03.781Z,22.20
2019-04-04T10:45:32.435Z,22.80
2019-04-04T10:48:01.002Z,23.20
2019-04-04T10:50:29.590Z,23.80
2019-04-04T10:52:58.795Z,23.50
2019-04-04T10:55:27.339Z,22.20
2019-04-04T10:57:56.117Z,21.40
2019-04-04T11:00:24.676Z,20.80
2019-04-04T11:02:53.319Z,19.90
2019-04-04T11:05:21.893Z,19.90
2019-04-04T11:07:50.538Z,20.40
2019-04-04T11:10:19.110Z,20.80
2019-04-04T11:12:47.698Z,20.90
2019-04-04T11:15:16.261Z,20.00
2019-04-04T11:17:44.870Z,20.00
2019-04-04T11:20:14.143Z,19.80
2019-04-04T11:22:42.706Z,19.30
2019-04-04T11:25:11.282Z,19.50
2019-04-04T11:27:39.935Z,19.60
2019-04-04T11:30:09.586Z,19.50
2019-04-04T11:32:38.149Z,19.70
2019-04-04T11:35:06.867Z,20.10
2019-04-04T11:37:35.439Z,20.30
2019-04-04T11:40:04.127Z,20.00
2019-04-04T11:42:32.714Z,20.00
2019-04-04T11:45:01.658Z,20.00
2019-04-04T11:47:30.243Z,20.80
2019-04-04T11:49:58.826Z,21.30
2019-04-04T11:52:27.397Z,21.30
2019-04-04T11:55:00.113Z,21.10
2019-04-04T11:57:28.698Z,20.60
2019-04-04T11:59:57.276Z,21.10
2019-04-04T12:02:27.559Z,21.70
2019-04-04T12:04:57.784Z,22.80
2019-04-04T12:07:26.608Z,23.70
2019-04-04T12:10:06.719Z,24.40
2019-04-04T12:12:25.590Z,24.50
2019-04-04T12:14:54.254Z,23.90
2019-04-04T12:17:22.818Z,24.50
2019-04-04T12:19:51.497Z,24.90
2019-04-04T12:22:20.079Z,25.30
2019-04-04T12:24:48.994Z,25.90
2019-04-04T12:27:17.687Z,26.50
2019-04-04T12:29:46.897Z,27.10
2019-04-04T12:32:15.550Z,27.40
2019-04-04T12:34:44.405Z,26.50
2019-04-04T12:37:12.968Z,26.40
2019-04-04T12:39:44.202Z,25.60
2019-04-04T12:42:11.842Z,24.50
2019-04-04T12:44:40.410Z,24.10
2019-04-04T12:47:09.327Z,24.60
2019-04-04T12:49:37.967Z,24.60
2019-04-04T12:52:06.906Z,24.60
2019-04-04T12:54:35.482Z,24.20
2019-04-04T12:57:04.265Z,24.70
2019-04-04T12:59:33.150Z,24.70
2019-04-04T13:02:01.838Z,24.40
2019-04-04T13:04:32.245Z,24.10
2019-04-04T13:07:01.014Z,23.90
2019-04-04T13:09:29.576Z,23.80
2019-04-04T13:11:58.167Z,23.90
2019-04-04T13:14:26.754Z,24.10
2019-04-04T13:16:55.570Z,24.20
2019-04-04T13:19:24.191Z,24.80
2019-04-04T13:21:52.761Z,25.40
2019-04-04T13:24:21.327Z,25.30
2019-04-04T13:26:49.922Z,25.70
2019-04-04T13:29:18.519Z,25.20
2019-04-04T13:31:47.098Z,23.70
2019-04-04T13:34:15.689Z,22.60
2019-04-04T13:36:44.364Z,21.80
2019-04-04T13:39:12.930Z,21.40
2019-04-04T13:41:41.520Z,21.20
2019-04-04T13:44:10.604Z,20.70
2019-04-04T13:46:39.181Z,20.40
2019-04-04T13:49:08.066Z,19.90
2019-04-04T13:51:36.964Z,20.00
2019-04-04T13:54:05.534Z,19.90
2019-04-04T13:56:34.226Z,19.70
2019-04-04T13:59:05.811Z,19.20
2019-04-04T14:01:33.441Z,18.90
2019-04-04T14:04:02.043Z,18.50
2019-04-04T14:06:30.626Z,17.90
2019-04-04T14:08:59.206Z,17.60
2019-04-04T14:11:27.795Z,17.10
2019-04-04T14:13:58.707Z,16.90
2019-04-04T14:16:26.983Z,16.90
2019-04-04T14:18:55.582Z,16.80
2019-04-04T14:21:24.170Z,16.70
2019-04-04T14:23:53.157Z,16.40
2019-04-04T14:26:22.191Z,16.30
2019-04-04T14:28:51.034Z,16.40
2019-04-04T14:31:19.603Z,16.40
2019-04-04T14:33:48.199Z,16.40
2019-04-04T14:36:16.758Z,16.10
2019-04-04T14:38:45.326Z,15.80
2019-04-04T14:41:13.918Z,15.60
2019-04-04T14:43:42.549Z,15.40
2019-04-04T14:46:11.127Z,15.20
2019-04-04T14:48:42.260Z,15.00
2019-04-04T14:51:10.299Z,14.70
2019-04-04T14:53:38.898Z,14.50
2019-04-04T14:56:07.477Z,14.50
2019-04-04T14:58:36.092Z,14.20
2019-04-04T15:01:04.692Z,14.00
2019-04-04T15:03:33.312Z,13.60
2019-04-04T15:06:02.134Z,13.50
2019-04-04T15:08:30.766Z,13.40
2019-04-04T15:10:59.334Z,13.30
2019-04-04T15:13:27.918Z,13.00
2019-04-04T15:16:15.558Z,12.70
2019-04-04T15:18:44.227Z,12.60
2019-04-04T15:21:12.798Z,12.40
2019-04-04T15:23:41.399Z,12.30
2019-04-04T15:26:10.277Z,12.10
2019-04-04T15:28:38.819Z,11.90
2019-04-04T15:31:07.407Z,11.80
2019-04-04T15:33:35.967Z,11.70
2019-04-04T15:36:04.526Z,11.80
2019-04-04T15:38:33.149Z,11.70
2019-04-04T15:41:01.719Z,11.70
2019-04-04T15:43:30.807Z,11.70
2019-04-04T15:45:59.517Z,11.60
2019-04-04T15:48:28.098Z,11.50
2019-04-04T15:50:56.763Z,11.30
2019-04-04T15:53:25.378Z,11.20
2019-04-04T15:55:54.018Z,10.90
2019-04-04T15:58:22.839Z,10.80
2019-04-04T16:00:51.475Z,10.80
2019-04-04T16:03:20.055Z,10.60
2019-04-04T16:05:48.698Z,10.50
2019-04-04T16:08:17.286Z,10.50
2019-04-04T16:10:45.876Z,10.50
2019-04-04T16:13:14.431Z,10.60
2019-04-04T16:15:43.345Z,10.60
2019-04-04T16:18:11.919Z,10.60
2019-04-04T16:20:40.517Z,10.60
2019-04-04T16:23:09.099Z,10.50
2019-04-04T16:25:37.655Z,10.40
2019-04-04T16:28:06.249Z,10.30
2019-04-04T16:30:34.867Z,10.30
2019-04-04T16:33:03.455Z,10.30
2019-04-04T16:35:32.018Z,10.20
2019-04-04T16:38:00.992Z,10.20
2019-04-04T16:40:29.590Z,10.20
2019-04-04T16:42:58.151Z,10.10
2019-04-04T16:45:26.714Z,10.00
2019-04-04T16:47:55.547Z,9.90
2019-04-04T16:50:24.223Z,9.90
2019-04-04T16:52:52.934Z,9.80
2019-04-04T16:55:21.522Z,9.80
2019-04-04T16:57:50.198Z,9.70
2019-04-04T17:00:20.882Z,9.70
2019-04-04T17:02:50.391Z,9.60
2019-04-04T17:05:18.970Z,9.60
2019-04-04T17:07:47.608Z,9.60
2019-04-04T17:10:17.851Z,9.50
2019-04-04T17:12:46.402Z,9.40
2019-04-04T17:15:15.247Z,9.40
2019-04-04T17:17:44.175Z,9.30
2019-04-04T17:20:34.258Z,9.20
2019-04-04T17:23:04.930Z,9.10
2019-04-04T17:25:33.687Z,9.00
2019-04-04T17:28:02.591Z,9.00
2019-04-04T17:30:31.396Z,9.00
2019-04-04T17:33:00.053Z,8.90
2019-04-04T17:35:28.663Z,8.90
2019-04-04T17:37:57.731Z,8.70
2019-04-04T17:40:26.405Z,8.70
2019-04-04T17:42:55.513Z,8.60
2019-04-04T17:45:24.202Z,8.50
2019-04-04T17:47:55.050Z,8.50
2019-04-04T17:50:24.088Z,8.40
2019-04-04T17:52:52.887Z,8.30
2019-04-04T17:55:21.922Z,8.30
2019-04-04T17:57:51.022Z,8.20
2019-04-04T18:00:20.771Z,8.20
2019-04-04T18:02:49.349Z,8.20
2019-04-04T18:05:17.975Z,8.20
2019-04-04T18:07:46.578Z,8.10
2019-04-04T18:10:34.707Z,8.20
2019-04-04T18:13:03.322Z,8.20
2019-04-04T18:15:32.136Z,8.20
2019-04-04T18:18:00.954Z,8.10
2019-04-04T18:20:29.570Z,8.10
2019-04-04T18:22:58.225Z,8.10
2019-04-04T18:25:26.810Z,8.10
2019-04-04T18:27:55.415Z,8.10
2019-04-04T18:30:23.963Z,8.10
2019-04-04T18:32:52.568Z,8.00
2019-04-04T18:35:21.152Z,7.90
2019-04-04T18:37:49.698Z,8.00
2019-04-04T18:40:18.271Z,7.90
2019-04-04T18:42:53.230Z,7.90
2019-04-04T18:45:17.244Z,8.00
2019-04-04T18:47:45.806Z,8.00
2019-04-04T18:50:14.434Z,8.00
2019-04-04T18:52:43.037Z,7.90
2019-04-04T18:55:19.529Z,7.90
2019-04-04T18:57:43.516Z,7.80
2019-04-04T19:00:12.326Z,7.80
2019-04-04T19:02:40.879Z,7.80
2019-04-04T19:05:09.434Z,7.80
2019-04-04T19:07:39.533Z,7.70
2019-04-04T19:10:08.461Z,7.80
2019-04-04T19:12:37.016Z,7.80
2019-04-04T19:15:07.781Z,7.70
2019-04-04T19:17:36.175Z,7.70
2019-04-04T19:20:05.620Z,7.70
2019-04-04T19:22:34.202Z,7.60
2019-04-04T19:25:02.839Z,7.70
2019-04-04T19:27:31.470Z,7.60
2019-04-04T19:30:00.131Z,7.70
2019-04-04T19:32:28.691Z,7.60
2019-04-04T19:34:57.252Z,7.60
2019-04-04T19:37:26.178Z,7.60
2019-04-04T19:39:54.749Z,7.60
2019-04-04T19:42:23.314Z,7.60
2019-04-04T19:44:53.480Z,7.60
2019-04-04T19:47:22.181Z,7.60
2019-04-04T19:49:50.738Z,7.60
2019-04-04T19:52:19.339Z,7.50
2019-04-04T19:54:47.906Z,7.50
2019-04-04T19:57:17.101Z,7.50
2019-04-04T19:59:45.733Z,7.50
2019-04-04T20:02:14.334Z,7.50
2019-04-04T20:04:42.894Z,7.50
2019-04-04T20:07:11.554Z,7.40
2019-04-04T20:09:40.219Z,7.40
2019-04-04T20:12:08.774Z,7.40
2019-04-04T20:14:37.362Z,7.40
2019-04-04T20:17:05.954Z,7.40
2019-04-04T20:19:34.879Z,7.30
2019-04-04T20:22:03.571Z,7.20
2019-04-04T20:24:32.326Z,7.20
2019-04-04T20:27:01.126Z,7.20
2019-04-04T20:29:29.727Z,7.20
2019-04-04T20:31:58.297Z,7.20
2019-04-04T20:34:26.853Z,7.10
2019-04-04T20:36:55.442Z,7.00
2019-04-04T20:39:24.011Z,7.00
2019-04-04T20:41:52.914Z,7.00
2019-04-04T20:44:21.502Z,7.00
2019-04-04T20:46:50.065Z,7.00
2019-04-04T20:49:18.626Z,7.00
2019-04-04T20:51:47.254Z,7.00
2019-04-04T20:54:15.799Z,7.00
2019-04-04T20:56:44.714Z,7.00
2019-04-04T20:59:13.371Z,7.00
2019-04-04T21:01:41.929Z,7.00
2019-04-04T21:04:11.410Z,7.00
2019-04-04T21:06:40.078Z,7.00
2019-04-04T21:09:08.892Z,6.90
2019-04-04T21:11:37.464Z,7.00
2019-04-04T21:14:06.042Z,6.90
2019-04-04T21:16:34.603Z,7.00
2019-04-04T21:19:03.162Z,6.90
2019-04-04T21:21:32.087Z,7.00
2019-04-04T21:24:00.659Z,7.00
2019-04-04T21:26:29.227Z,7.00
2019-04-04T21:28:57.831Z,7.00
2019-04-04T21:31:26.393Z,7.00
2019-04-04T21:33:54.947Z,7.00
2019-04-04T21:36:23.522Z,6.90
2019-04-04T21:38:52.087Z,6.90
2019-04-04T21:41:20.661Z,6.90
2019-04-04T21:43:49.226Z,6.90
2019-04-04T21:46:17.802Z,6.90
2019-04-04T21:48:46.386Z,6.90
2019-04-04T21:51:15.275Z,6.90
2019-04-04T21:53:43.837Z,6.90
2019-04-04T21:56:12.395Z,6.90
2019-04-04T21:58:40.975Z,7.00
